sensor_id;sensor_type;location;lat;lon;timestamp;pressure;altitude;pressure_sealevel;temperature;humidity
75425;BME280;64007;50.632;13.700;2023-01-13T00:00:20;97430.66;;;6.69;100.00
75425;BME280;64007;50.632;13.700;2023-01-13T00:03:06;97429.31;;;6.63;100.00
75425;BME280;64007;50.632;13.700;2023-01-13T00:05:32;97429.53;;;6.60;100.00
75425;BME280;64007;50.632;13.700;2023-01-13T00:07:58;97427.25;;;6.55;100.00
75425;BME280;64007;50.632;13.700;2023-01-13T00:10:24;97423.88;;;6.53;100.00
75425;BME280;64007;50.632;13.700;2023-01-13T00:12:49;97426.41;;;6.55;100.00
75425;BME280;64007;50.632;13.700;2023-01-13T00:15:16;97419.06;;;6.47;100.00
75425;BME280;64007;50.632;13.700;2023-01-13T00:17:41;97414.84;;;6.45;100.00
75425;BME280;64007;50.632;13.700;2023-01-13T00:20:09;97415.81;;;6.44;100.00
75425;BME280;64007;50.632;13.700;2023-01-13T00:22:34;97415.06;;;6.42;100.00
75425;BME280;64007;50.632;13.700;2023-01-13T00:25:02;97405.53;;;6.39;100.00
75425;BME280;64007;50.632;13.700;2023-01-13T00:27:28;97411.78;;;6.38;100.00
75425;BME280;64007;50.632;13.700;2023-01-13T00:29:55;97407.56;;;6.36;100.00
75425;BME280;64007;50.632;13.700;2023-01-13T00:32:20;97404.94;;;6.36;100.00
75425;BME280;64007;50.632;13.700;2023-01-13T00:34:46;97406.72;;;6.35;100.00
75425;BME280;64007;50.632;13.700;2023-01-13T00:37:11;97406.72;;;6.35;100.00
75425;BME280;64007;50.632;13.700;2023-01-13T00:39:42;97393.88;;;6.31;100.00
75425;BME280;64007;50.632;13.700;2023-01-13T00:42:07;97393.88;;;6.31;100.00
75425;BME280;64007;50.632;13.700;2023-01-13T00:44:51;97396.28;;;6.34;100.00
75425;BME280;64007;50.632;13.700;2023-01-13T00:47:17;97396.59;;;6.42;100.00
75425;BME280;64007;50.632;13.700;2023-01-13T00:49:43;97393.94;;;6.42;100.00
75425;BME280;64007;50.632;13.700;2023-01-13T00:52:10;97386.75;;;6.44;100.00
75425;BME280;64007;50.632;13.700;2023-01-13T00:54:36;97384.59;;;6.49;100.00
75425;BME280;64007;50.632;13.700;2023-01-13T00:57:03;97383.44;;;6.64;100.00
75425;BME280;64007;50.632;13.700;2023-01-13T00:59:29;97379.84;;;6.65;100.00
75425;BME280;64007;50.632;13.700;2023-01-13T01:01:55;97379.16;;;6.74;100.00
75425;BME280;64007;50.632;13.700;2023-01-13T01:04:21;97372.91;;;6.75;100.00
75425;BME280;64007;50.632;13.700;2023-01-13T01:06:47;97369.19;;;6.78;100.00
75425;BME280;64007;50.632;13.700;2023-01-13T01:09:14;97370.75;;;6.80;100.00
75425;BME280;64007;50.632;13.700;2023-01-13T01:11:40;97374.47;;;6.78;100.00
75425;BME280;64007;50.632;13.700;2023-01-13T01:14:09;97364.09;;;6.99;100.00
75425;BME280;64007;50.632;13.700;2023-01-13T01:16:34;97373.22;;;6.95;100.00
75425;BME280;64007;50.632;13.700;2023-01-13T01:19:00;97370.69;;;7.04;100.00
75425;BME280;64007;50.632;13.700;2023-01-13T01:21:27;97374.66;;;7.10;100.00
75425;BME280;64007;50.632;13.700;2023-01-13T01:23:54;97377.44;;;7.19;100.00
75425;BME280;64007;50.632;13.700;2023-01-13T01:26:22;97382.53;;;7.22;100.00
75425;BME280;64007;50.632;13.700;2023-01-13T01:28:48;97389.09;;;7.06;100.00
75425;BME280;64007;50.632;13.700;2023-01-13T01:33:40;97384.28;;;7.00;100.00
75425;BME280;64007;50.632;13.700;2023-01-13T01:36:06;97382.13;;;7.05;100.00
75425;BME280;64007;50.632;13.700;2023-01-13T01:38:32;97391.25;;;7.01;100.00
75425;BME280;64007;50.632;13.700;2023-01-13T01:40:58;97391.00;;;7.04;100.00
75425;BME280;64007;50.632;13.700;2023-01-13T01:49:02;97375.84;;;6.95;100.00
75425;BME280;64007;50.632;13.700;2023-01-13T01:51:31;97377.78;;;6.93;100.00
75425;BME280;64007;50.632;13.700;2023-01-13T01:54:00;97376.59;;;7.08;100.00
75425;BME280;64007;50.632;13.700;2023-01-13T01:56:27;97369.25;;;7.00;100.00
75425;BME280;64007;50.632;13.700;2023-01-13T01:58:53;97368.19;;;7.03;100.00
75425;BME280;64007;50.632;13.700;2023-01-13T02:01:18;97365.03;;;6.98;100.00
75425;BME280;64007;50.632;13.700;2023-01-13T02:04:10;97353.63;;;6.97;100.00
75425;BME280;64007;50.632;13.700;2023-01-13T02:06:38;97359.53;;;7.01;100.00
75425;BME280;64007;50.632;13.700;2023-01-13T02:09:04;97359.03;;;7.07;100.00
75425;BME280;64007;50.632;13.700;2023-01-13T02:11:32;97354.97;;;7.03;100.00
75425;BME280;64007;50.632;13.700;2023-01-13T02:14:19;97353.63;;;6.97;100.00
75425;BME280;64007;50.632;13.700;2023-01-13T02:31:09;97350.41;;;7.05;100.00
75425;BME280;64007;50.632;13.700;2023-01-13T02:36:46;97342.47;;;7.16;100.00
75425;BME280;64007;50.632;13.700;2023-01-13T02:39:24;97351.03;;;7.31;100.00
75425;BME280;64007;50.632;13.700;2023-01-13T02:42:11;97342.00;;;7.22;100.00
75425;BME280;64007;50.632;13.700;2023-01-13T02:45:02;97339.69;;;7.17;100.00
75425;BME280;64007;50.632;13.700;2023-01-13T02:47:33;97335.72;;;7.12;100.00
75425;BME280;64007;50.632;13.700;2023-01-13T02:50:17;97338.63;;;7.09;100.00
75425;BME280;64007;50.632;13.700;2023-01-13T02:53:11;97338.75;;;7.07;100.00
75425;BME280;64007;50.632;13.700;2023-01-13T02:55:39;97337.91;;;7.07;100.00
75425;BME280;64007;50.632;13.700;2023-01-13T02:58:08;97332.38;;;7.10;100.00
75425;BME280;64007;50.632;13.700;2023-01-13T03:00:36;97334.28;;;7.08;100.00
75425;BME280;64007;50.632;13.700;2023-01-13T03:03:02;97332.13;;;7.13;100.00
75425;BME280;64007;50.632;13.700;2023-01-13T03:05:31;97329.75;;;7.21;100.00
75425;BME280;64007;50.632;13.700;2023-01-13T03:08:47;97331.44;;;7.22;100.00
75425;BME280;64007;50.632;13.700;2023-01-13T03:11:11;97325.41;;;7.09;100.00
75425;BME280;64007;50.632;13.700;2023-01-13T03:14:23;97325.16;;;7.12;100.00
75425;BME280;64007;50.632;13.700;2023-01-13T03:17:05;97326.59;;;7.16;100.00
75425;BME280;64007;50.632;13.700;2023-01-13T03:20:01;97319.16;;;7.10;100.00
75425;BME280;64007;50.632;13.700;2023-01-13T03:25:14;97324.69;;;7.18;100.00
75425;BME280;64007;50.632;13.700;2023-01-13T03:27:56;97320.59;;;7.03;100.00
75425;BME280;64007;50.632;13.700;2023-01-13T03:30:41;97325.63;;;7.17;100.00
75425;BME280;64007;50.632;13.700;2023-01-13T03:33:17;97322.16;;;7.16;100.00
75425;BME280;64007;50.632;13.700;2023-01-13T03:35:49;97324.69;;;7.18;100.00
75425;BME280;64007;50.632;13.700;2023-01-13T03:38:47;97314.00;;;7.08;100.00
75425;BME280;64007;50.632;13.700;2023-01-13T03:41:35;97313.50;;;7.14;100.00
75425;BME280;64007;50.632;13.700;2023-01-13T03:44:10;97308.59;;;7.21;100.00
75425;BME280;64007;50.632;13.700;2023-01-13T03:47:11;97318.09;;;7.23;100.00
75425;BME280;64007;50.632;13.700;2023-01-13T03:49:45;97307.38;;;7.14;100.00
75425;BME280;64007;50.632;13.700;2023-01-13T03:52:19;97308.56;;;7.10;100.00
75425;BME280;64007;50.632;13.700;2023-01-13T03:55:02;97310.38;;;7.09;100.00
75425;BME280;64007;50.632;13.700;2023-01-13T03:57:33;97309.19;;;7.02;100.00
75425;BME280;64007;50.632;13.700;2023-01-13T04:00:02;97304.50;;;7.06;100.00
75425;BME280;64007;50.632;13.700;2023-01-13T04:02:48;97308.81;;;7.07;100.00
75425;BME280;64007;50.632;13.700;2023-01-13T04:05:16;97312.91;;;7.00;100.00
75425;BME280;64007;50.632;13.700;2023-01-13T04:07:53;97315.31;;;7.14;100.00
75425;BME280;64007;50.632;13.700;2023-01-13T04:10:27;97302.34;;;7.11;100.00
75425;BME280;64007;50.632;13.700;2023-01-13T04:13:02;97309.66;;;7.07;100.00
75425;BME280;64007;50.632;13.700;2023-01-13T04:15:34;97306.06;;;7.08;100.00
75425;BME280;64007;50.632;13.700;2023-01-13T04:21:02;97308.69;;;7.08;100.00
75425;BME280;64007;50.632;13.700;2023-01-13T04:23:28;97306.41;;;7.04;100.00
75425;BME280;64007;50.632;13.700;2023-01-13T04:25:55;97303.66;;;6.94;100.00
75425;BME280;64007;50.632;13.700;2023-01-13T04:28:22;97301.63;;;6.98;100.00
75425;BME280;64007;50.632;13.700;2023-01-13T04:30:48;97298.25;;;6.96;100.00
75425;BME280;64007;50.632;13.700;2023-01-13T04:33:15;97299.09;;;6.96;100.00
75425;BME280;64007;50.632;13.700;2023-01-13T04:35:42;97294.16;;;7.03;100.00
75425;BME280;64007;50.632;13.700;2023-01-13T04:38:15;97305.34;;;7.06;100.00
75425;BME280;64007;50.632;13.700;2023-01-13T04:40:41;97301.00;;;7.05;100.00
75425;BME280;64007;50.632;13.700;2023-01-13T04:43:08;97301.50;;;6.99;100.00
75425;BME280;64007;50.632;13.700;2023-01-13T04:45:34;97295.59;;;6.96;100.00
75425;BME280;64007;50.632;13.700;2023-01-13T04:48:00;97302.09;;;7.03;100.00
75425;BME280;64007;50.632;13.700;2023-01-13T04:50:26;97299.44;;;7.03;100.00
75425;BME280;64007;50.632;13.700;2023-01-13T04:52:52;97311.94;;;7.01;100.00
75425;BME280;64007;50.632;13.700;2023-01-13T04:55:19;97303.19;;;7.00;100.00
75425;BME280;64007;50.632;13.700;2023-01-13T04:57:46;97303.28;;;6.99;100.00
75425;BME280;64007;50.632;13.700;2023-01-13T05:00:13;97303.78;;;6.93;100.00
75425;BME280;64007;50.632;13.700;2023-01-13T05:02:39;97314.59;;;6.89;100.00
75425;BME280;64007;50.632;13.700;2023-01-13T05:05:05;97312.31;;;6.96;100.00
75425;BME280;64007;50.632;13.700;2023-01-13T05:07:31;97317.72;;;6.95;100.00
75425;BME280;64007;50.632;13.700;2023-01-13T05:09:57;97312.66;;;6.91;100.00
75425;BME280;64007;50.632;13.700;2023-01-13T05:12:23;97318.31;;;6.87;100.00
75425;BME280;64007;50.632;13.700;2023-01-13T05:15:11;97321.19;;;6.84;100.00
75425;BME280;64007;50.632;13.700;2023-01-13T05:17:56;97321.78;;;6.87;100.00
75425;BME280;64007;50.632;13.700;2023-01-13T05:20:22;97329.97;;;6.84;100.00
75425;BME280;64007;50.632;13.700;2023-01-13T05:22:48;97329.00;;;6.85;100.00
75425;BME280;64007;50.632;13.700;2023-01-13T05:25:34;97329.72;;;6.87;100.00
75425;BME280;64007;50.632;13.700;2023-01-13T05:28:02;97326.34;;;6.85;100.00
75425;BME280;64007;50.632;13.700;2023-01-13T05:30:30;97321.06;;;6.97;100.00
75425;BME280;64007;50.632;13.700;2023-01-13T05:32:56;97322.28;;;6.93;100.00
75425;BME280;64007;50.632;13.700;2023-01-13T05:35:22;97318.19;;;6.88;100.00
75425;BME280;64007;50.632;13.700;2023-01-13T05:37:48;97319.41;;;6.96;100.00
75425;BME280;64007;50.632;13.700;2023-01-13T05:40:15;97310.03;;;7.03;100.00
75425;BME280;64007;50.632;13.700;2023-01-13T05:43:14;97317.47;;;6.98;100.00
75425;BME280;64007;50.632;13.700;2023-01-13T05:48:22;97315.78;;;6.97;100.00
75425;BME280;64007;50.632;13.700;2023-01-13T05:50:49;97317.22;;;6.89;100.00
75425;BME280;64007;50.632;13.700;2023-01-13T05:53:16;97305.56;;;6.81;100.00
75425;BME280;64007;50.632;13.700;2023-01-13T05:55:43;97314.59;;;6.89;100.00
75425;BME280;64007;50.632;13.700;2023-01-13T05:58:11;97318.66;;;6.82;100.00
75425;BME280;64007;50.632;13.700;2023-01-13T06:00:37;97316.97;;;6.81;100.00
75425;BME280;64007;50.632;13.700;2023-01-13T06:03:04;97320.78;;;6.77;100.00
75425;BME280;64007;50.632;13.700;2023-01-13T06:05:30;97316.34;;;6.78;100.00
75425;BME280;64007;50.632;13.700;2023-01-13T06:07:57;97315.50;;;6.77;100.00
75425;BME280;64007;50.632;13.700;2023-01-13T06:10:23;97322.47;;;6.78;100.00
75425;BME280;64007;50.632;13.700;2023-01-13T06:12:49;97323.44;;;6.77;100.00
75425;BME280;64007;50.632;13.700;2023-01-13T06:15:15;97322.47;;;6.78;100.00
75425;BME280;64007;50.632;13.700;2023-01-13T06:17:41;97322.94;;;6.72;100.00
75425;BME280;64007;50.632;13.700;2023-01-13T06:20:07;97331.63;;;6.85;100.00
75425;BME280;64007;50.632;13.700;2023-01-13T06:22:37;97329.25;;;6.82;100.00
75425;BME280;64007;50.632;13.700;2023-01-13T06:25:17;97345.53;;;6.76;100.00
75425;BME280;64007;50.632;13.700;2023-01-13T06:27:44;97336.88;;;6.74;100.00
75425;BME280;64007;50.632;13.700;2023-01-13T06:30:10;97336.16;;;6.72;100.00
75425;BME280;64007;50.632;13.700;2023-01-13T06:32:41;97334.59;;;6.70;100.00
75425;BME280;64007;50.632;13.700;2023-01-13T06:35:11;97335.66;;;6.67;100.00
75425;BME280;64007;50.632;13.700;2023-01-13T06:37:38;97335.78;;;6.66;100.00
75425;BME280;64007;50.632;13.700;2023-01-13T06:40:06;97326.28;;;6.63;100.00
75425;BME280;64007;50.632;13.700;2023-01-13T06:42:35;97325.56;;;6.61;100.00
75425;BME280;64007;50.632;13.700;2023-01-13T06:45:21;97325.56;;;6.61;100.00
75425;BME280;64007;50.632;13.700;2023-01-13T06:47:47;97332.66;;;6.60;100.00
75425;BME280;64007;50.632;13.700;2023-01-13T06:50:16;97326.66;;;6.58;100.00
75425;BME280;64007;50.632;13.700;2023-01-13T06:52:42;97330.38;;;6.56;100.00
75425;BME280;64007;50.632;13.700;2023-01-13T06:55:08;97330.50;;;6.66;100.00
75425;BME280;64007;50.632;13.700;2023-01-13T06:57:33;97323.66;;;6.63;100.00
75425;BME280;64007;50.632;13.700;2023-01-13T06:59:59;97315.25;;;6.69;100.00
75425;BME280;64007;50.632;13.700;2023-01-13T07:02:25;97323.66;;;6.63;100.00
75425;BME280;64007;50.632;13.700;2023-01-13T07:04:52;97323.66;;;6.63;100.00
75425;BME280;64007;50.632;13.700;2023-01-13T07:07:18;97326.53;;;6.60;100.00
75425;BME280;64007;50.632;13.700;2023-01-13T07:09:43;97317.88;;;6.58;100.00
75425;BME280;64007;50.632;13.700;2023-01-13T07:12:10;97318.13;;;6.55;100.00
75425;BME280;64007;50.632;13.700;2023-01-13T07:14:36;97317.88;;;6.58;100.00
75425;BME280;64007;50.632;13.700;2023-01-13T07:17:20;97324.13;;;6.57;100.00
75425;BME280;64007;50.632;13.700;2023-01-13T07:19:50;97330.84;;;6.61;100.00
75425;BME280;64007;50.632;13.700;2023-01-13T07:22:16;97329.91;;;6.73;100.00
75425;BME280;64007;50.632;13.700;2023-01-13T07:24:42;97314.53;;;6.67;100.00
75425;BME280;64007;50.632;13.700;2023-01-13T07:27:08;97326.28;;;6.63;100.00
75425;BME280;64007;50.632;13.700;2023-01-13T07:29:33;97321.25;;;6.60;100.00
75425;BME280;64007;50.632;13.700;2023-01-13T07:31:59;97327.25;;;6.62;100.00
75425;BME280;64007;50.632;13.700;2023-01-13T07:34:25;97322.31;;;6.57;100.00
75425;BME280;64007;50.632;13.700;2023-01-13T07:36:51;97324.47;;;6.52;100.00
75425;BME280;64007;50.632;13.700;2023-01-13T07:39:16;97328.44;;;6.47;100.00
75425;BME280;64007;50.632;13.700;2023-01-13T07:41:42;97330.84;;;6.61;100.00
75425;BME280;64007;50.632;13.700;2023-01-13T07:44:26;97334.09;;;6.53;100.00
75425;BME280;64007;50.632;13.700;2023-01-13T07:46:52;97324.94;;;6.46;100.00
75425;BME280;64007;50.632;13.700;2023-01-13T07:49:18;97329.50;;;6.44;100.00
75425;BME280;64007;50.632;13.700;2023-01-13T07:51:44;97334.59;;;6.35;100.00
75425;BME280;64007;50.632;13.700;2023-01-13T07:54:10;97340.13;;;6.32;100.00
75425;BME280;64007;50.632;13.700;2023-01-13T07:56:35;97332.53;;;6.27;100.00
75425;BME280;64007;50.632;13.700;2023-01-13T07:59:01;97340.81;;;6.22;100.00
75425;BME280;64007;50.632;13.700;2023-01-13T08:01:27;97336.47;;;6.21;100.00
75425;BME280;64007;50.632;13.700;2023-01-13T08:03:54;97334.91;;;6.19;100.00
75425;BME280;64007;50.632;13.700;2023-01-13T08:06:20;97341.75;;;6.21;100.00
75425;BME280;64007;50.632;13.700;2023-01-13T08:08:46;97337.06;;;6.14;100.00
75425;BME280;64007;50.632;13.700;2023-01-13T08:11:12;97329.75;;;6.17;100.00
75425;BME280;64007;50.632;13.700;2023-01-13T08:13:37;97328.78;;;6.18;100.00
75425;BME280;64007;50.632;13.700;2023-01-13T08:16:08;97330.47;;;6.19;100.00
75425;BME280;64007;50.632;13.700;2023-01-13T08:18:35;97326.75;;;6.22;100.00
75425;BME280;64007;50.632;13.700;2023-01-13T08:21:03;97335.41;;;6.24;100.00
75425;BME280;64007;50.632;13.700;2023-01-13T08:23:29;97330.00;;;6.25;100.00
75425;BME280;64007;50.632;13.700;2023-01-13T08:25:59;97323.78;;;6.26;100.00
75425;BME280;64007;50.632;13.700;2023-01-13T08:28:25;97327.41;;;6.37;100.00
75425;BME280;64007;50.632;13.700;2023-01-13T08:30:51;97323.09;;;6.36;100.00
75425;BME280;64007;50.632;13.700;2023-01-13T08:33:19;97326.44;;;6.38;100.00
75425;BME280;64007;50.632;13.700;2023-01-13T08:35:45;97332.66;;;6.60;100.00
75425;BME280;64007;50.632;13.700;2023-01-13T08:38:11;97330.38;;;6.67;100.00
75425;BME280;64007;50.632;13.700;2023-01-13T08:40:39;97327.56;;;6.81;100.00
75425;BME280;64007;50.632;13.700;2023-01-13T08:43:04;97334.28;;;6.97;100.00
75425;BME280;64007;50.632;13.700;2023-01-13T08:45:31;97335.00;;;6.99;100.00
75425;BME280;64007;50.632;13.700;2023-01-13T08:47:57;97336.56;;;6.90;100.00
75425;BME280;64007;50.632;13.700;2023-01-13T08:50:23;97314.94;;;6.96;100.00
75425;BME280;64007;50.632;13.700;2023-01-13T08:52:49;97336.47;;;7.14;100.00
75425;BME280;64007;50.632;13.700;2023-01-13T08:55:15;97322.28;;;7.04;100.00
75425;BME280;64007;50.632;13.700;2023-01-13T08:57:40;97328.06;;;7.31;100.00
75425;BME280;64007;50.632;13.700;2023-01-13T09:00:07;97325.41;;;7.31;100.00
75425;BME280;64007;50.632;13.700;2023-01-13T09:02:33;97319.28;;;7.19;100.00
75425;BME280;64007;50.632;13.700;2023-01-13T09:04:59;97321.06;;;7.08;100.00
75425;BME280;64007;50.632;13.700;2023-01-13T09:07:27;97318.91;;;7.02;100.00
75425;BME280;64007;50.632;13.700;2023-01-13T09:09:53;97317.00;;;7.04;100.00
75425;BME280;64007;50.632;13.700;2023-01-13T09:12:20;97313.38;;;7.05;100.00
75425;BME280;64007;50.632;13.700;2023-01-13T09:15:05;97315.66;;;7.09;100.00
75425;BME280;64007;50.632;13.700;2023-01-13T09:17:31;97321.31;;;7.16;100.00
75425;BME280;64007;50.632;13.700;2023-01-13T09:19:57;97320.03;;;7.21;100.00
75425;BME280;64007;50.632;13.700;2023-01-13T09:22:22;97326.38;;;7.30;100.00
75425;BME280;64007;50.632;13.700;2023-01-13T09:24:52;97320.38;;;7.39;100.00
75425;BME280;64007;50.632;13.700;2023-01-13T09:27:18;97324.78;;;7.50;100.00
75425;BME280;64007;50.632;13.700;2023-01-13T09:29:44;97327.31;;;7.51;100.00
75425;BME280;64007;50.632;13.700;2023-01-13T09:32:13;97326.13;;;7.67;100.00
75425;BME280;64007;50.632;13.700;2023-01-13T09:34:39;97334.53;;;7.72;100.00
75425;BME280;64007;50.632;13.700;2023-01-13T09:37:27;97330.66;;;7.76;100.00
75425;BME280;64007;50.632;13.700;2023-01-13T09:39:54;97328.22;;;7.84;100.00
75425;BME280;64007;50.632;13.700;2023-01-13T09:42:37;97322.69;;;7.87;100.00
75425;BME280;64007;50.632;13.700;2023-01-13T09:45:31;97327.72;;;7.90;100.00
75425;BME280;64007;50.632;13.700;2023-01-13T09:48:35;97323.03;;;7.94;100.00
75425;BME280;64007;50.632;13.700;2023-01-13T09:51:28;97325.78;;;8.03;100.00
75425;BME280;64007;50.632;13.700;2023-01-13T09:53:59;97313.22;;;8.16;100.00
75425;BME280;64007;50.632;13.700;2023-01-13T09:56:27;97320.97;;;7.97;100.00
75425;BME280;64007;50.632;13.700;2023-01-13T09:58:53;97316.91;;;7.93;100.00
75425;BME280;64007;50.632;13.700;2023-01-13T10:03:56;97326.50;;;8.05;100.00
75425;BME280;64007;50.632;13.700;2023-01-13T10:06:37;97318.56;;;8.05;100.00
75425;BME280;64007;50.632;13.700;2023-01-13T10:09:21;97323.88;;;7.94;100.00
75425;BME280;64007;50.632;13.700;2023-01-13T10:11:50;97324.13;;;7.91;100.00
75425;BME280;64007;50.632;13.700;2023-01-13T10:14:58;97315.72;;;7.86;100.00
75425;BME280;64007;50.632;13.700;2023-01-13T10:17:44;97319.31;;;7.85;100.00
75425;BME280;64007;50.632;13.700;2023-01-13T10:28:56;97366.63;;;7.56;100.00
75425;BME280;64007;50.632;13.700;2023-01-13T10:31:23;97365.09;;;7.42;100.00
75425;BME280;64007;50.632;13.700;2023-01-13T10:34:01;97344.19;;;7.28;100.00
75425;BME280;64007;50.632;13.700;2023-01-13T10:36:28;97336.09;;;7.18;100.00
75425;BME280;64007;50.632;13.700;2023-01-13T10:39:06;97323.00;;;7.17;100.00
75425;BME280;64007;50.632;13.700;2023-01-13T10:41:32;97313.25;;;6.95;100.00
75425;BME280;64007;50.632;13.700;2023-01-13T10:44:04;97311.34;;;6.97;100.00
75425;BME280;64007;50.632;13.700;2023-01-13T10:46:32;97314.84;;;6.98;100.00
75425;BME280;64007;50.632;13.700;2023-01-13T10:49:00;97323.25;;;6.91;100.00
75425;BME280;64007;50.632;13.700;2023-01-13T10:56:36;97327.94;;;6.99;100.00
75425;BME280;64007;50.632;13.700;2023-01-13T10:59:32;97310.50;;;7.19;100.00
75425;BME280;64007;50.632;13.700;2023-01-13T11:07:46;97312.69;;;7.25;100.00
75425;BME280;64007;50.632;13.700;2023-01-13T11:10:20;97305.94;;;7.32;100.00
75425;BME280;64007;50.632;13.700;2023-01-13T11:12:56;97310.25;;;7.44;100.00
75425;BME280;64007;50.632;13.700;2023-01-13T11:15:33;97294.53;;;7.32;100.00
75425;BME280;64007;50.632;13.700;2023-01-13T11:21:41;97304.22;;;7.53;100.00
75425;BME280;64007;50.632;13.700;2023-01-13T11:24:21;97301.00;;;7.39;100.00
75425;BME280;64007;50.632;13.700;2023-01-13T11:29:26;97311.59;;;7.39;100.00
75425;BME280;64007;50.632;13.700;2023-01-13T11:32:03;97312.44;;;7.39;100.00
75425;BME280;64007;50.632;13.700;2023-01-13T11:34:38;97304.63;;;7.38;100.00
75425;BME280;64007;50.632;13.700;2023-01-13T11:37:13;97311.25;;;7.32;100.00
75425;BME280;64007;50.632;13.700;2023-01-13T11:40:44;97321.47;;;7.26;100.00
75425;BME280;64007;50.632;13.700;2023-01-13T11:42:59;97318.69;;;7.27;100.00
75425;BME280;64007;50.632;13.700;2023-01-13T11:45:44;97326.88;;;7.35;100.00
75425;BME280;64007;50.632;13.700;2023-01-13T11:48:21;97316.88;;;7.28;100.00
75425;BME280;64007;50.632;13.700;2023-01-13T11:53:56;97305.84;;;7.22;100.00
75425;BME280;64007;50.632;13.700;2023-01-13T12:05:00;97302.78;;;7.49;100.00
75425;BME280;64007;50.632;13.700;2023-01-13T12:07:45;97308.69;;;7.53;100.00
75425;BME280;64007;50.632;13.700;2023-01-13T12:21:35;97302.06;;;7.59;100.00
75425;BME280;64007;50.632;13.700;2023-01-13T12:29:50;97298.34;;;7.50;100.00
75425;BME280;64007;50.632;13.700;2023-01-13T12:32:19;97283.31;;;7.62;100.00
75425;BME280;64007;50.632;13.700;2023-01-13T12:35:03;97295.06;;;7.58;100.00
75425;BME280;64007;50.632;13.700;2023-01-13T12:37:38;97294.00;;;7.60;100.00
75425;BME280;64007;50.632;13.700;2023-01-13T12:42:57;97305.44;;;7.61;100.00
75425;BME280;64007;50.632;13.700;2023-01-13T12:45:46;97299.06;;;7.63;100.00
75425;BME280;64007;50.632;13.700;2023-01-13T12:51:28;97297.72;;;7.69;100.00
75425;BME280;64007;50.632;13.700;2023-01-13T12:53:55;97298.22;;;7.63;100.00
75425;BME280;64007;50.632;13.700;2023-01-13T12:58:51;97313.69;;;7.78;100.00
75425;BME280;64007;50.632;13.700;2023-01-13T13:01:16;97311.66;;;7.71;100.00
75425;BME280;64007;50.632;13.700;2023-01-13T13:04:10;97317.94;;;7.70;100.00
75425;BME280;64007;50.632;13.700;2023-01-13T13:06:39;97315.13;;;7.82;100.00
75425;BME280;64007;50.632;13.700;2023-01-13T13:11:46;97334.47;;;7.94;100.00
75425;BME280;64007;50.632;13.700;2023-01-13T13:17:03;97345.31;;;7.80;100.00
75425;BME280;64007;50.632;13.700;2023-01-13T13:24:41;97348.66;;;7.93;100.00
75425;BME280;64007;50.632;13.700;2023-01-13T13:27:18;97343.94;;;8.08;100.00
75425;BME280;64007;50.632;13.700;2023-01-13T13:40:45;97320.84;;;7.99;100.00
75425;BME280;64007;50.632;13.700;2023-01-13T13:43:38;97327.72;;;7.90;100.00
75425;BME280;64007;50.632;13.700;2023-01-13T13:46:29;97320.06;;;7.76;100.00
75425;BME280;64007;50.632;13.700;2023-01-13T13:49:33;97329.66;;;7.88;100.00
75425;BME280;64007;50.632;13.700;2023-01-13T13:54:38;97334.19;;;8.08;98.19
75425;BME280;64007;50.632;13.700;2023-01-13T13:57:15;97340.28;;;8.20;100.00
75425;BME280;64007;50.632;13.700;2023-01-13T13:59:40;97336.50;;;8.02;100.00
75425;BME280;64007;50.632;13.700;2023-01-13T14:02:18;97340.00;;;7.91;100.00
75425;BME280;64007;50.632;13.700;2023-01-13T14:04:44;97342.69;;;7.80;100.00
75425;BME280;64007;50.632;13.700;2023-01-13T14:07:18;97343.19;;;7.74;100.00
75425;BME280;64007;50.632;13.700;2023-01-13T14:09:53;97355.47;;;7.64;100.00
75425;BME280;64007;50.632;13.700;2023-01-13T14:12:23;97351.13;;;7.63;100.00
75425;BME280;64007;50.632;13.700;2023-01-13T14:14:50;97352.56;;;7.67;100.00
75425;BME280;64007;50.632;13.700;2023-01-13T14:17:25;97350.91;;;7.66;100.00
75425;BME280;64007;50.632;13.700;2023-01-13T14:20:12;97347.63;;;7.73;100.00
75425;BME280;64007;50.632;13.700;2023-01-13T14:22:48;97344.25;;;7.82;100.00
75425;BME280;64007;50.632;13.700;2023-01-13T14:25:28;97354.31;;;7.89;94.94
75425;BME280;64007;50.632;13.700;2023-01-13T14:27:56;97355.44;;;7.75;100.00
75425;BME280;64007;50.632;13.700;2023-01-13T14:30:25;97357.38;;;7.73;100.00
75425;BME280;64007;50.632;13.700;2023-01-13T14:32:52;97355.94;;;7.58;100.00
75425;BME280;64007;50.632;13.700;2023-01-13T14:35:18;97363.41;;;7.41;100.00
75425;BME280;64007;50.632;13.700;2023-01-13T14:37:44;97376.84;;;7.49;99.47
75425;BME280;64007;50.632;13.700;2023-01-13T14:43:11;97375.53;;;7.77;92.80
75425;BME280;64007;50.632;13.700;2023-01-13T14:45:40;97382.41;;;7.69;97.22
75425;BME280;64007;50.632;13.700;2023-01-13T14:48:08;97377.59;;;7.63;92.51
75425;BME280;64007;50.632;13.700;2023-01-13T14:50:34;97382.38;;;7.58;100.00
75425;BME280;64007;50.632;13.700;2023-01-13T14:53:00;97383.84;;;7.39;100.00
75425;BME280;64007;50.632;13.700;2023-01-13T14:55:33;97385.75;;;7.37;99.78
75425;BME280;64007;50.632;13.700;2023-01-13T15:00:46;97386.69;;;7.03;100.00
75425;BME280;64007;50.632;13.700;2023-01-13T15:03:14;97391.84;;;7.04;100.00
75425;BME280;64007;50.632;13.700;2023-01-13T15:05:45;97384.75;;;6.94;100.00
75425;BME280;64007;50.632;13.700;2023-01-13T15:10:50;97400.06;;;6.77;100.00
75425;BME280;64007;50.632;13.700;2023-01-13T15:13:24;97415.47;;;6.83;100.00
75425;BME280;64007;50.632;13.700;2023-01-13T15:15:53;97425.72;;;6.64;100.00
75425;BME280;64007;50.632;13.700;2023-01-13T15:18:20;97422.09;;;6.54;100.00
75425;BME280;64007;50.632;13.700;2023-01-13T15:20:45;97430.47;;;6.48;100.00
75425;BME280;64007;50.632;13.700;2023-01-13T15:23:11;97426.66;;;6.39;100.00